NOZ302 ENGM-ENNA
Flight info
| Callsign | NOZ302 |
|---|---|
| Flight time | 1h 43m |
| Altitude | 37000 |
| Route | RIBBE DCT GIGNI DCT SOMUB DCT TUXOT DCT AMIMO DCT ABASU T399 MOKAX DCT LUVED |
| Aircraft | B738/M-SADE3GHIJ1LRWXY/LB1 |
Departure
| Time | 2026-05-04 06:44 |
|---|---|
| Airport | Oslo-Gardermoen International Airport (ENGM) |
Arrival
| Time | 2026-05-04 08:27 |
|---|---|
| Airport | Lakselv Airport, Banak (ENNA) |
| Time | Latitude | Longitude | Altitude | Speed | Heading |
|---|---|---|---|---|---|
| 2026-05-04 06:11 | 60.19515 | 11.09817 | 681 ft | 0 kts | 183° |
| 2026-05-04 06:36 | 60.19600 | 11.09825 | 684 ft | 0 kts | 183° |
| 2026-05-04 06:40 | 60.19974 | 11.09969 | 683 ft | 12 kts | 82° |
| 2026-05-04 06:40 | 60.19955 | 11.10128 | 685 ft | 12 kts | 106° |
| 2026-05-04 06:40 | 60.19928 | 11.10308 | 684 ft | 15 kts | 107° |
| 2026-05-04 06:40 | 60.19895 | 11.10544 | 681 ft | 19 kts | 106° |
| 2026-05-04 06:41 | 60.19858 | 11.10796 | 683 ft | 18 kts | 106° |
| 2026-05-04 06:41 | 60.19824 | 11.11041 | 680 ft | 18 kts | 105° |
| 2026-05-04 06:41 | 60.19790 | 11.11276 | 679 ft | 17 kts | 106° |
| 2026-05-04 06:41 | 60.19742 | 11.11492 | 682 ft | 17 kts | 111° |
| 2026-05-04 06:42 | 60.19710 | 11.11710 | 682 ft | 16 kts | 105° |
| 2026-05-04 06:42 | 60.19654 | 11.11895 | 679 ft | 15 kts | 126° |
| 2026-05-04 06:42 | 60.19544 | 11.11913 | 682 ft | 24 kts | 197° |
| 2026-05-04 06:44 | 60.12164 | 11.10712 | 3272 ft | 243 kts | 140° |
| 2026-05-04 06:44 | 60.10978 | 11.13183 | 4070 ft | 249 kts | 127° |
| 2026-05-04 06:44 | 60.10393 | 11.16413 | 4989 ft | 250 kts | 87° |
| 2026-05-04 06:45 | 60.10874 | 11.19664 | 5947 ft | 244 kts | 52° |
| 2026-05-04 06:45 | 60.12092 | 11.21961 | 6786 ft | 242 kts | 26° |
| 2026-05-04 06:45 | 60.13669 | 11.23064 | 7568 ft | 241 kts | 4° |
| 2026-05-04 06:45 | 60.15364 | 11.23474 | 8109 ft | 261 kts | 0° |
| 2026-05-04 06:46 | 60.17304 | 11.23814 | 8363 ft | 291 kts | 0° |
| 2026-05-04 06:46 | 60.19389 | 11.24161 | 8717 ft | 315 kts | 0° |
| 2026-05-04 06:46 | 60.21612 | 11.24549 | 9490 ft | 325 kts | 1° |
| 2026-05-04 06:46 | 60.23888 | 11.24969 | 10320 ft | 331 kts | 0° |
| 2026-05-04 06:48 | 60.40763 | 11.28282 | 15989 ft | 365 kts | 359° |
| 2026-05-04 06:48 | 60.43304 | 11.28793 | 16749 ft | 369 kts | 358° |
| 2026-05-04 06:49 | 60.45877 | 11.29310 | 17486 ft | 374 kts | 358° |
| 2026-05-04 06:50 | 60.64850 | 11.33146 | 21828 ft | 409 kts | 358° |
| 2026-05-04 06:51 | 60.67697 | 11.33726 | 22419 ft | 414 kts | 358° |
| 2026-05-04 06:51 | 60.70578 | 11.34314 | 22986 ft | 418 kts | 358° |
| 2026-05-04 06:51 | 60.73451 | 11.34902 | 23498 ft | 423 kts | 358° |
| 2026-05-04 06:51 | 60.76391 | 11.35506 | 23987 ft | 426 kts | 358° |
| 2026-05-04 06:52 | 60.79392 | 11.36124 | 24502 ft | 429 kts | 358° |
| 2026-05-04 06:52 | 60.82332 | 11.36731 | 24983 ft | 432 kts | 358° |
| 2026-05-04 06:52 | 60.85338 | 11.37351 | 25440 ft | 436 kts | 358° |
| 2026-05-04 06:52 | 60.88368 | 11.37977 | 25893 ft | 441 kts | 358° |
| 2026-05-04 06:53 | 60.91437 | 11.38609 | 26285 ft | 445 kts | 358° |
| 2026-05-04 06:53 | 60.94529 | 11.39249 | 26732 ft | 448 kts | 358° |
| 2026-05-04 06:53 | 60.97642 | 11.39897 | 27168 ft | 451 kts | 358° |
| 2026-05-04 06:53 | 61.00774 | 11.40550 | 27583 ft | 454 kts | 358° |
| 2026-05-04 06:54 | 61.03928 | 11.41208 | 27999 ft | 457 kts | 358° |
| 2026-05-04 06:54 | 61.07102 | 11.41872 | 28416 ft | 460 kts | 358° |
| 2026-05-04 06:54 | 61.10300 | 11.42541 | 28795 ft | 464 kts | 358° |
| 2026-05-04 06:54 | 61.13521 | 11.43217 | 29184 ft | 467 kts | 358° |
| 2026-05-04 06:55 | 61.16764 | 11.43900 | 29552 ft | 470 kts | 358° |
| 2026-05-04 06:55 | 61.20024 | 11.44587 | 29873 ft | 473 kts | 358° |
| 2026-05-04 06:55 | 61.23305 | 11.45280 | 30164 ft | 475 kts | 359° |
| 2026-05-04 06:55 | 61.26601 | 11.45979 | 30482 ft | 477 kts | 359° |
| 2026-05-04 06:56 | 61.29909 | 11.46682 | 30786 ft | 479 kts | 359° |
| 2026-05-04 06:57 | 61.53049 | 11.48404 | 33305 ft | 475 kts | 352° |
| 2026-05-04 06:58 | 61.56351 | 11.48372 | 33721 ft | 473 kts | 353° |
| 2026-05-04 06:58 | 61.59637 | 11.48365 | 34073 ft | 472 kts | 353° |
| 2026-05-04 06:58 | 61.62919 | 11.48372 | 34385 ft | 471 kts | 353° |
| 2026-05-04 06:58 | 61.66201 | 11.48384 | 34670 ft | 471 kts | 353° |
| 2026-05-04 06:59 | 61.69479 | 11.48398 | 34963 ft | 471 kts | 353° |
| 2026-05-04 06:59 | 61.72747 | 11.48411 | 35266 ft | 470 kts | 354° |
| 2026-05-04 06:59 | 61.76015 | 11.48424 | 35590 ft | 469 kts | 354° |
| 2026-05-04 06:59 | 61.79286 | 11.48434 | 35806 ft | 470 kts | 354° |
| 2026-05-04 07:01 | 62.02280 | 11.48755 | 36630 ft | 473 kts | 359° |
| 2026-05-04 07:01 | 62.05548 | 11.49394 | 36678 ft | 471 kts | 1° |
| 2026-05-04 07:02 | 62.12073 | 11.51044 | 36641 ft | 473 kts | 2° |
| 2026-05-04 07:02 | 62.18599 | 11.52700 | 36636 ft | 472 kts | 1° |
| 2026-05-04 07:03 | 62.25077 | 11.54241 | 36645 ft | 472 kts | 1° |
| 2026-05-04 07:03 | 62.31608 | 11.55749 | 36632 ft | 472 kts | 1° |
| 2026-05-04 07:04 | 62.38136 | 11.57256 | 36651 ft | 472 kts | 1° |
| 2026-05-04 07:04 | 62.44674 | 11.58775 | 36653 ft | 473 kts | 1° |
| 2026-05-04 07:05 | 62.51217 | 11.60305 | 36650 ft | 473 kts | 1° |
| 2026-05-04 07:05 | 62.57763 | 11.61844 | 36662 ft | 473 kts | 1° |
| 2026-05-04 07:06 | 62.67583 | 11.64165 | 36642 ft | 474 kts | 1° |
| 2026-05-04 07:07 | 62.74137 | 11.65722 | 36646 ft | 474 kts | 1° |
| 2026-05-04 07:09 | 63.00395 | 11.72032 | 36698 ft | 475 kts | 2° |
| 2026-05-04 07:09 | 63.06968 | 11.73630 | 36694 ft | 475 kts | 2° |
| 2026-05-04 07:10 | 63.13533 | 11.75233 | 36696 ft | 475 kts | 2° |
| 2026-05-04 07:12 | 63.39558 | 11.83842 | 36695 ft | 479 kts | 16° |
| 2026-05-04 07:12 | 63.45808 | 11.89065 | 36670 ft | 480 kts | 17° |
| 2026-05-04 07:13 | 63.52055 | 11.94302 | 36671 ft | 479 kts | 17° |
| 2026-05-04 07:13 | 63.58311 | 11.99436 | 36687 ft | 479 kts | 16° |
| 2026-05-04 07:14 | 63.73984 | 12.12271 | 36652 ft | 479 kts | 16° |
| 2026-05-04 07:15 | 63.80207 | 12.17417 | 36660 ft | 479 kts | 16° |
| 2026-05-04 07:15 | 63.86469 | 12.22620 | 36662 ft | 480 kts | 16° |
| 2026-05-04 07:16 | 63.92736 | 12.27852 | 36656 ft | 480 kts | 16° |
| 2026-05-04 07:16 | 63.99001 | 12.33118 | 36799 ft | 480 kts | 17° |
| 2026-05-04 07:17 | 64.05226 | 12.38654 | 36826 ft | 480 kts | 18° |
| 2026-05-04 07:17 | 64.11431 | 12.44321 | 36807 ft | 480 kts | 18° |
| 2026-05-04 07:18 | 64.16588 | 12.49039 | 36787 ft | 480 kts | 18° |
| 2026-05-04 07:18 | 64.22792 | 12.54708 | 36737 ft | 480 kts | 18° |
| 2026-05-04 07:19 | 64.28996 | 12.60390 | 36693 ft | 480 kts | 18° |
| 2026-05-04 07:19 | 64.35204 | 12.66100 | 36635 ft | 480 kts | 18° |
| 2026-05-04 07:20 | 64.41409 | 12.71836 | 36616 ft | 480 kts | 18° |
| 2026-05-04 07:20 | 64.47618 | 12.77605 | 36608 ft | 481 kts | 18° |
| 2026-05-04 07:22 | 64.72445 | 13.00961 | 36587 ft | 481 kts | 18° |
| 2026-05-04 07:23 | 64.78652 | 13.06872 | 36581 ft | 482 kts | 18° |
| 2026-05-04 07:23 | 64.84813 | 13.12769 | 36581 ft | 481 kts | 18° |
| 2026-05-04 07:24 | 64.91011 | 13.18732 | 36571 ft | 481 kts | 18° |
| 2026-05-04 07:24 | 64.97211 | 13.24725 | 36570 ft | 482 kts | 18° |
| 2026-05-04 07:26 | 65.22041 | 13.49035 | 36565 ft | 483 kts | 19° |
| 2026-05-04 07:27 | 65.28249 | 13.55191 | 36545 ft | 483 kts | 19° |
| 2026-05-04 07:27 | 65.34448 | 13.61369 | 36572 ft | 483 kts | 19° |
| 2026-05-04 07:28 | 65.40644 | 13.67576 | 36548 ft | 482 kts | 19° |
| 2026-05-04 07:28 | 65.46823 | 13.73798 | 36544 ft | 481 kts | 19° |
| 2026-05-04 07:29 | 65.52986 | 13.80036 | 36538 ft | 480 kts | 19° |
| 2026-05-04 07:29 | 65.59129 | 13.86286 | 36532 ft | 478 kts | 19° |
| 2026-05-04 07:30 | 65.65257 | 13.92552 | 36542 ft | 478 kts | 19° |
| 2026-05-04 07:30 | 65.71339 | 13.98802 | 36527 ft | 478 kts | 19° |
| 2026-05-04 07:31 | 65.77450 | 14.05115 | 36533 ft | 477 kts | 19° |
| 2026-05-04 07:33 | 66.01855 | 14.30655 | 36548 ft | 478 kts | 20° |
| 2026-05-04 07:33 | 66.07963 | 14.37132 | 36557 ft | 479 kts | 20° |
| 2026-05-04 07:34 | 66.14080 | 14.43653 | 36539 ft | 479 kts | 20° |
| 2026-05-04 07:34 | 66.20201 | 14.50212 | 36544 ft | 480 kts | 20° |
| 2026-05-04 07:35 | 66.26324 | 14.56808 | 36547 ft | 480 kts | 20° |
| 2026-05-04 07:35 | 66.32455 | 14.63447 | 36526 ft | 481 kts | 20° |
| 2026-05-04 07:36 | 66.38539 | 14.70071 | 36538 ft | 480 kts | 20° |
| 2026-05-04 07:38 | 66.62982 | 14.97044 | 36550 ft | 479 kts | 21° |
| 2026-05-04 07:38 | 66.69059 | 15.03841 | 36555 ft | 477 kts | 21° |
| 2026-05-04 07:39 | 66.75120 | 15.10657 | 36556 ft | 477 kts | 21° |
| 2026-05-04 07:39 | 66.81176 | 15.17503 | 36556 ft | 477 kts | 21° |
| 2026-05-04 07:40 | 66.87227 | 15.24380 | 36558 ft | 476 kts | 21° |
| 2026-05-04 07:40 | 66.93263 | 15.31280 | 36557 ft | 475 kts | 21° |
| 2026-05-04 07:41 | 66.99282 | 15.38197 | 36568 ft | 475 kts | 21° |
| 2026-05-04 07:41 | 67.05308 | 15.45159 | 36557 ft | 475 kts | 21° |
| 2026-05-04 07:42 | 67.11326 | 15.52151 | 36563 ft | 475 kts | 21° |
| 2026-05-04 07:42 | 67.17345 | 15.59182 | 36564 ft | 475 kts | 21° |
| 2026-05-04 07:43 | 67.23366 | 15.66254 | 36560 ft | 475 kts | 21° |
| 2026-05-04 07:43 | 67.29378 | 15.73355 | 36565 ft | 475 kts | 21° |
| 2026-05-04 07:44 | 67.35348 | 15.80445 | 36570 ft | 475 kts | 21° |
| 2026-05-04 07:44 | 67.41364 | 15.87631 | 36582 ft | 476 kts | 22° |
| 2026-05-04 07:45 | 67.47388 | 15.94864 | 36571 ft | 477 kts | 22° |
| 2026-05-04 07:45 | 67.53415 | 16.02144 | 36560 ft | 478 kts | 22° |
| 2026-05-04 07:46 | 67.59443 | 16.09466 | 36557 ft | 477 kts | 22° |
| 2026-05-04 07:46 | 67.65454 | 16.16810 | 36559 ft | 476 kts | 22° |
| 2026-05-04 07:47 | 67.71452 | 16.24177 | 36557 ft | 475 kts | 22° |
| 2026-05-04 07:49 | 67.94322 | 16.58339 | 36556 ft | 475 kts | 38° |
| 2026-05-04 07:49 | 67.99385 | 16.69655 | 36550 ft | 475 kts | 38° |
| 2026-05-04 07:50 | 68.04464 | 16.80899 | 36550 ft | 475 kts | 38° |
| 2026-05-04 07:50 | 68.09561 | 16.92118 | 36556 ft | 474 kts | 38° |
| 2026-05-04 07:51 | 68.14656 | 17.03363 | 36547 ft | 474 kts | 38° |
| 2026-05-04 07:51 | 68.19739 | 17.14655 | 36553 ft | 474 kts | 38° |
| 2026-05-04 07:52 | 68.24816 | 17.26006 | 36539 ft | 474 kts | 38° |
| 2026-05-04 07:52 | 68.29878 | 17.37395 | 36569 ft | 473 kts | 39° |
| 2026-05-04 07:54 | 68.50019 | 17.83394 | 36537 ft | 474 kts | 39° |
| 2026-05-04 07:55 | 68.55051 | 17.95053 | 36545 ft | 475 kts | 39° |
| 2026-05-04 07:55 | 68.59728 | 18.07787 | 36545 ft | 477 kts | 52° |
| 2026-05-04 07:56 | 68.63645 | 18.22442 | 36543 ft | 476 kts | 54° |
| 2026-05-04 07:56 | 68.67503 | 18.37226 | 36552 ft | 477 kts | 53° |
| 2026-05-04 07:57 | 68.71391 | 18.51984 | 36532 ft | 476 kts | 53° |
| 2026-05-04 07:57 | 68.75285 | 18.66718 | 36539 ft | 476 kts | 53° |
| 2026-05-04 07:58 | 68.79171 | 18.81492 | 36553 ft | 475 kts | 53° |
| 2026-05-04 07:58 | 68.83042 | 18.96321 | 36581 ft | 476 kts | 54° |
| 2026-05-04 07:59 | 68.86896 | 19.11197 | 36583 ft | 475 kts | 54° |
| 2026-05-04 07:59 | 68.90736 | 19.26121 | 36569 ft | 475 kts | 54° |
| 2026-05-04 08:00 | 68.94561 | 19.41086 | 36565 ft | 475 kts | 54° |
| 2026-05-04 08:02 | 69.09501 | 20.01682 | 36607 ft | 474 kts | 60° |
| 2026-05-04 08:02 | 69.12649 | 20.17873 | 36603 ft | 473 kts | 62° |
| 2026-05-04 08:03 | 69.15713 | 20.34009 | 36249 ft | 462 kts | 62° |
| 2026-05-04 08:03 | 69.17236 | 20.41959 | 35686 ft | 463 kts | 62° |
| 2026-05-04 08:03 | 69.18773 | 20.49939 | 35048 ft | 466 kts | 62° |
| 2026-05-04 08:04 | 69.20319 | 20.57959 | 34416 ft | 468 kts | 62° |
| 2026-05-04 08:04 | 69.21852 | 20.65917 | 33803 ft | 469 kts | 62° |
| 2026-05-04 08:04 | 69.23407 | 20.74015 | 33139 ft | 470 kts | 62° |
| 2026-05-04 08:04 | 69.24958 | 20.82128 | 32461 ft | 470 kts | 62° |
| 2026-05-04 08:05 | 69.26507 | 20.90260 | 31757 ft | 471 kts | 62° |
| 2026-05-04 08:05 | 69.28056 | 20.98426 | 31064 ft | 472 kts | 62° |
| 2026-05-04 08:05 | 69.29597 | 21.06588 | 30515 ft | 469 kts | 62° |
| 2026-05-04 08:05 | 69.31123 | 21.14700 | 29889 ft | 467 kts | 62° |
| 2026-05-04 08:06 | 69.32651 | 21.22853 | 28885 ft | 471 kts | 62° |
| 2026-05-04 08:06 | 69.34184 | 21.31069 | 27754 ft | 474 kts | 62° |
| 2026-05-04 08:06 | 69.35730 | 21.39382 | 26614 ft | 479 kts | 62° |
| 2026-05-04 08:06 | 69.37279 | 21.47749 | 25783 ft | 477 kts | 62° |
| 2026-05-04 08:08 | 69.47073 | 22.01453 | 19128 ft | 443 kts | 63° |
| 2026-05-04 08:08 | 69.48473 | 22.09244 | 18397 ft | 441 kts | 63° |
| 2026-05-04 08:10 | 69.60176 | 22.66769 | 13144 ft | 401 kts | 46° |
| 2026-05-04 08:11 | 69.62058 | 22.72597 | 12522 ft | 395 kts | 46° |
| 2026-05-04 08:11 | 69.65648 | 22.83852 | 11971 ft | 370 kts | 47° |
| 2026-05-04 08:11 | 69.67347 | 22.89261 | 11694 ft | 359 kts | 47° |
| 2026-05-04 08:12 | 69.68994 | 22.94545 | 11417 ft | 350 kts | 47° |
| 2026-05-04 08:12 | 69.70595 | 22.99712 | 11142 ft | 341 kts | 48° |
| 2026-05-04 08:12 | 69.72153 | 23.04761 | 10874 ft | 334 kts | 48° |
| 2026-05-04 08:12 | 69.73679 | 23.09717 | 10618 ft | 327 kts | 48° |
| 2026-05-04 08:13 | 69.75172 | 23.14583 | 10347 ft | 321 kts | 48° |
| 2026-05-04 08:13 | 69.76634 | 23.19360 | 10083 ft | 315 kts | 48° |
| 2026-05-04 08:13 | 69.78071 | 23.24064 | 9813 ft | 309 kts | 49° |
| 2026-05-04 08:13 | 69.79476 | 23.28677 | 9646 ft | 302 kts | 49° |
| 2026-05-04 08:14 | 69.80855 | 23.33212 | 9501 ft | 294 kts | 49° |
| 2026-05-04 08:14 | 69.82173 | 23.37557 | 9239 ft | 283 kts | 49° |
| 2026-05-04 08:14 | 69.83468 | 23.41835 | 8689 ft | 282 kts | 49° |
| 2026-05-04 08:16 | 69.92279 | 23.71171 | 7052 ft | 281 kts | 49° |
| 2026-05-04 08:16 | 69.93536 | 23.75390 | 6793 ft | 278 kts | 49° |
| 2026-05-04 08:16 | 69.94799 | 23.79635 | 6534 ft | 277 kts | 49° |
| 2026-05-04 08:17 | 69.96054 | 23.83863 | 6287 ft | 275 kts | 49° |
| 2026-05-04 08:17 | 69.97299 | 23.88068 | 6113 ft | 271 kts | 49° |
| 2026-05-04 08:17 | 69.98520 | 23.92199 | 6026 ft | 268 kts | 50° |
| 2026-05-04 08:17 | 69.99736 | 23.96321 | 5958 ft | 268 kts | 50° |
| 2026-05-04 08:19 | 70.08305 | 24.25597 | 4839 ft | 268 kts | 50° |
| 2026-05-04 08:19 | 70.09496 | 24.29689 | 4564 ft | 260 kts | 50° |
| 2026-05-04 08:20 | 70.10650 | 24.33670 | 4284 ft | 252 kts | 50° |
| 2026-05-04 08:20 | 70.11758 | 24.37502 | 4094 ft | 238 kts | 50° |
| 2026-05-04 08:20 | 70.12796 | 24.41095 | 4017 ft | 223 kts | 50° |
| 2026-05-04 08:20 | 70.13739 | 24.44515 | 3984 ft | 207 kts | 59° |
| 2026-05-04 08:21 | 70.14200 | 24.48368 | 3843 ft | 198 kts | 78° |
| 2026-05-04 08:21 | 70.14534 | 24.52250 | 3703 ft | 194 kts | 77° |
| 2026-05-04 08:21 | 70.14883 | 24.56090 | 3556 ft | 194 kts | 76° |
| 2026-05-04 08:21 | 70.15236 | 24.59933 | 3405 ft | 194 kts | 76° |
| 2026-05-04 08:22 | 70.15587 | 24.63758 | 3278 ft | 192 kts | 76° |
| 2026-05-04 08:22 | 70.15927 | 24.67461 | 3109 ft | 183 kts | 76° |
| 2026-05-04 08:24 | 70.16580 | 24.89822 | 1984 ft | 138 kts | 125° |
| 2026-05-04 08:24 | 70.15996 | 24.92021 | 1776 ft | 135 kts | 137° |
| 2026-05-04 08:24 | 70.15299 | 24.93730 | 1726 ft | 130 kts | 148° |
| 2026-05-04 08:24 | 70.14481 | 24.94997 | 1460 ft | 131 kts | 160° |
| 2026-05-04 08:25 | 70.13616 | 24.95712 | 1277 ft | 128 kts | 171° |
| 2026-05-04 08:25 | 70.12735 | 24.96002 | 1076 ft | 128 kts | 175° |
| 2026-05-04 08:25 | 70.11852 | 24.96199 | 887 ft | 127 kts | 175° |
| 2026-05-04 08:25 | 70.10967 | 24.96395 | 661 ft | 128 kts | 175° |
| 2026-05-04 08:26 | 70.10099 | 24.96609 | 489 ft | 124 kts | 175° |
| 2026-05-04 08:27 | 70.06581 | 24.97758 | 26 ft | 12 kts | 86° |
| 2026-05-04 08:28 | 70.06594 | 24.97921 | 27 ft | 6 kts | 61° |
| 2026-05-04 08:28 | 70.06602 | 24.98011 | 27 ft | 2 kts | 84° |
| 2026-05-04 08:28 | 70.06603 | 24.98049 | 27 ft | 2 kts | 85° |
| 2026-05-04 08:28 | 70.06603 | 24.98053 | 27 ft | 0 kts | 85° |